sensor_id;sensor_type;location;lat;lon;timestamp;pressure;altitude;pressure_sealevel;temperature;humidity
80397;BME280;69721;55.894;-3.052;2024-03-23T00:54:16;99911.03;;;2.01;62.35
80397;BME280;69721;55.894;-3.052;2024-03-23T00:56:42;99918.09;;;2.16;62.59
80397;BME280;69721;55.894;-3.052;2024-03-23T00:59:08;99912.37;;;2.27;62.21
80397;BME280;69721;55.894;-3.052;2024-03-23T01:01:33;99908.86;;;2.23;62.15
80397;BME280;69721;55.894;-3.052;2024-03-23T01:03:59;99925.85;;;2.01;63.28
80397;BME280;69721;55.894;-3.052;2024-03-23T01:06:24;99926.78;;;2.17;62.38
80397;BME280;69721;55.894;-3.052;2024-03-23T01:08:50;99921.97;;;2.08;63.39
80397;BME280;69721;55.894;-3.052;2024-03-23T01:11:16;99932.38;;;1.75;63.68
80397;BME280;69721;55.894;-3.052;2024-03-23T01:13:41;99916.73;;;2.03;62.60
80397;BME280;69721;55.894;-3.052;2024-03-23T01:16:07;99932.17;;;1.62;64.49
80397;BME280;69721;55.894;-3.052;2024-03-23T01:18:32;99928.69;;;1.25;66.08
80397;BME280;69721;55.894;-3.052;2024-03-23T01:20:58;99917.87;;;1.51;66.01
80397;BME280;69721;55.894;-3.052;2024-03-23T01:23:24;99922.58;;;1.26;65.76
80397;BME280;69721;55.894;-3.052;2024-03-23T01:25:53;99908.52;;;2.15;64.78
80397;BME280;69721;55.894;-3.052;2024-03-23T01:28:15;99913.32;;;1.66;65.77
80397;BME280;69721;55.894;-3.052;2024-03-23T01:30:40;99924.15;;;0.84;66.78
80397;BME280;69721;55.894;-3.052;2024-03-23T01:33:06;99902.80;;;1.67;66.46
80397;BME280;69721;55.894;-3.052;2024-03-23T01:35:31;99910.80;;;1.55;65.62
80397;BME280;69721;55.894;-3.052;2024-03-23T01:38:04;99896.99;;;2.28;63.95
80397;BME280;69721;55.894;-3.052;2024-03-23T01:40:29;99897.66;;;1.24;64.56
80397;BME280;69721;55.894;-3.052;2024-03-23T01:42:56;99898.16;;;1.60;64.35
80397;BME280;69721;55.894;-3.052;2024-03-23T01:45:21;99887.86;;;1.62;64.59
80397;BME280;69721;55.894;-3.052;2024-03-23T01:47:46;99882.18;;;2.08;62.85
80397;BME280;69721;55.894;-3.052;2024-03-23T01:50:11;99871.99;;;1.82;63.07
80397;BME280;69721;55.894;-3.052;2024-03-23T01:52:37;99866.18;;;1.69;62.82
80397;BME280;69721;55.894;-3.052;2024-03-23T01:55:03;99865.96;;;1.70;62.46
80397;BME280;69721;55.894;-3.052;2024-03-23T01:57:28;99865.43;;;1.46;63.67
80397;BME280;69721;55.894;-3.052;2024-03-23T01:59:53;99862.43;;;1.70;62.76
80397;BME280;69721;55.894;-3.052;2024-03-23T02:02:19;99851.46;;;1.55;62.51
80397;BME280;69721;55.894;-3.052;2024-03-23T02:04:45;99855.17;;;1.26;61.77
80397;BME280;69721;55.894;-3.052;2024-03-23T02:07:10;99858.29;;;1.58;61.52
80397;BME280;69721;55.894;-3.052;2024-03-23T02:12:03;99824.24;;;2.04;60.72
80397;BME280;69721;55.894;-3.052;2024-03-23T02:14:26;99833.19;;;2.10;59.55
80397;BME280;69721;55.894;-3.052;2024-03-23T02:16:52;99838.23;;;2.31;58.65
80397;BME280;69721;55.894;-3.052;2024-03-23T02:19:17;99838.38;;;2.65;58.03
80397;BME280;69721;55.894;-3.052;2024-03-23T02:21:43;99825.98;;;2.87;57.73
80397;BME280;69721;55.894;-3.052;2024-03-23T02:24:08;99828.34;;;2.96;57.10
80397;BME280;69721;55.894;-3.052;2024-03-23T02:26:34;99810.84;;;2.76;57.06
80397;BME280;69721;55.894;-3.052;2024-03-23T02:29:00;99799.40;;;3.59;55.71
80397;BME280;69721;55.894;-3.052;2024-03-23T02:31:25;99825.10;;;2.77;57.36
80397;BME280;69721;55.894;-3.052;2024-03-23T02:33:50;99814.87;;;2.36;59.51
80397;BME280;69721;55.894;-3.052;2024-03-23T02:36:16;99817.59;;;1.71;61.36
80397;BME280;69721;55.894;-3.052;2024-03-23T02:38:41;99810.33;;;1.90;62.74
80397;BME280;69721;55.894;-3.052;2024-03-23T02:41:06;99826.57;;;2.34;60.92
80397;BME280;69721;55.894;-3.052;2024-03-23T02:43:32;99810.17;;;1.75;62.61
80397;BME280;69721;55.894;-3.052;2024-03-23T02:45:58;99802.36;;;2.01;62.68
80397;BME280;69721;55.894;-3.052;2024-03-23T02:48:23;99797.09;;;1.91;62.94
80397;BME280;69721;55.894;-3.052;2024-03-23T02:50:49;99786.18;;;2.07;62.60
80397;BME280;69721;55.894;-3.052;2024-03-23T02:53:14;99803.43;;;1.14;65.55
80397;BME280;69721;55.894;-3.052;2024-03-23T02:55:40;99783.71;;;1.99;63.95
80397;BME280;69721;55.894;-3.052;2024-03-23T02:58:05;99779.25;;;1.72;64.14
80397;BME280;69721;55.894;-3.052;2024-03-23T03:00:32;99779.38;;;2.24;63.68
80397;BME280;69721;55.894;-3.052;2024-03-23T03:02:57;99774.55;;;2.44;61.53
80397;BME280;69721;55.894;-3.052;2024-03-23T03:05:23;99774.60;;;1.62;63.05
80397;BME280;69721;55.894;-3.052;2024-03-23T03:07:48;99771.19;;;2.37;61.34
80397;BME280;69721;55.894;-3.052;2024-03-23T03:10:14;99758.70;;;2.26;60.86
80397;BME280;69721;55.894;-3.052;2024-03-23T03:12:39;99747.37;;;3.34;57.78
80397;BME280;69721;55.894;-3.052;2024-03-23T03:15:05;99755.38;;;2.74;57.85
80397;BME280;69721;55.894;-3.052;2024-03-23T03:17:30;99743.56;;;2.57;58.52
80397;BME280;69721;55.894;-3.052;2024-03-23T03:22:22;99741.18;;;2.05;59.99
80397;BME280;69721;55.894;-3.052;2024-03-23T03:24:47;99741.82;;;2.06;59.95
80397;BME280;69721;55.894;-3.052;2024-03-23T03:27:12;99730.57;;;1.17;62.02
80397;BME280;69721;55.894;-3.052;2024-03-23T03:29:38;99740.24;;;1.47;61.42
80397;BME280;69721;55.894;-3.052;2024-03-23T03:32:04;99729.45;;;1.27;62.51
80397;BME280;69721;55.894;-3.052;2024-03-23T03:34:30;99727.57;;;1.77;62.09
80397;BME280;69721;55.894;-3.052;2024-03-23T03:36:56;99727.80;;;1.42;62.05
80397;BME280;69721;55.894;-3.052;2024-03-23T03:39:21;99714.93;;;2.55;59.52
80397;BME280;69721;55.894;-3.052;2024-03-23T03:41:47;99720.04;;;1.59;60.52
80397;BME280;69721;55.894;-3.052;2024-03-23T03:44:11;99716.59;;;1.55;62.00
80397;BME280;69721;55.894;-3.052;2024-03-23T03:46:37;99699.31;;;1.41;63.21
80397;BME280;69721;55.894;-3.052;2024-03-23T03:49:02;99707.86;;;1.66;62.57
80397;BME280;69721;55.894;-3.052;2024-03-23T03:51:28;99695.88;;;1.71;62.52
80397;BME280;69721;55.894;-3.052;2024-03-23T03:53:54;99695.45;;;1.30;62.45
80397;BME280;69721;55.894;-3.052;2024-03-23T03:56:19;99690.87;;;1.12;62.90
80397;BME280;69721;55.894;-3.052;2024-03-23T03:58:45;99693.94;;;1.50;61.94
80397;BME280;69721;55.894;-3.052;2024-03-23T04:01:12;99682.02;;;1.58;61.41
80397;BME280;69721;55.894;-3.052;2024-03-23T04:03:38;99679.68;;;1.75;61.36
80397;BME280;69721;55.894;-3.052;2024-03-23T04:06:04;99666.33;;;1.36;61.33
80397;BME280;69721;55.894;-3.052;2024-03-23T04:08:30;99667.26;;;1.44;61.26
80397;BME280;69721;55.894;-3.052;2024-03-23T04:11:50;99655.56;;;2.24;59.74
80397;BME280;69721;55.894;-3.052;2024-03-23T04:14:15;99657.14;;;1.66;60.96
80397;BME280;69721;55.894;-3.052;2024-03-23T04:16:41;99663.12;;;1.49;60.97
80397;BME280;69721;55.894;-3.052;2024-03-23T04:19:07;99663.37;;;1.79;60.57
80397;BME280;69721;55.894;-3.052;2024-03-23T04:21:32;99659.05;;;1.35;62.29
80397;BME280;69721;55.894;-3.052;2024-03-23T04:23:58;99656.99;;;1.90;61.60
80397;BME280;69721;55.894;-3.052;2024-03-23T04:26:23;99641.30;;;1.18;64.07
80397;BME280;69721;55.894;-3.052;2024-03-23T04:28:48;99638.80;;;1.27;63.31
80397;BME280;69721;55.894;-3.052;2024-03-23T04:33:40;99634.08;;;1.07;64.10
80397;BME280;69721;55.894;-3.052;2024-03-23T04:36:06;99632.21;;;0.40;65.90
80397;BME280;69721;55.894;-3.052;2024-03-23T04:38:31;99626.19;;;1.12;63.73
80397;BME280;69721;55.894;-3.052;2024-03-23T04:40:58;99621.46;;;1.45;62.92
80397;BME280;69721;55.894;-3.052;2024-03-23T04:43:22;99609.66;;;1.75;62.32
80397;BME280;69721;55.894;-3.052;2024-03-23T04:45:48;99619.86;;;1.35;62.12
80397;BME280;69721;55.894;-3.052;2024-03-23T04:48:13;99602.36;;;1.55;62.12
80397;BME280;69721;55.894;-3.052;2024-03-23T04:50:39;99594.48;;;1.38;62.44
80397;BME280;69721;55.894;-3.052;2024-03-23T04:53:04;99594.02;;;1.89;60.86
80397;BME280;69721;55.894;-3.052;2024-03-23T04:55:30;99606.74;;;1.82;61.46
80397;BME280;69721;55.894;-3.052;2024-03-23T04:57:55;99607.20;;;2.28;59.77
80397;BME280;69721;55.894;-3.052;2024-03-23T05:00:21;99614.27;;;1.81;60.06
80397;BME280;69721;55.894;-3.052;2024-03-23T05:02:47;99630.92;;;2.00;58.67
80397;BME280;69721;55.894;-3.052;2024-03-23T05:05:13;99635.99;;;2.69;57.82
80397;BME280;69721;55.894;-3.052;2024-03-23T05:07:38;99614.41;;;1.63;60.07
80397;BME280;69721;55.894;-3.052;2024-03-23T05:10:04;99607.04;;;1.85;61.26
80397;BME280;69721;55.894;-3.052;2024-03-23T05:12:29;99608.54;;;2.33;60.23
80397;BME280;69721;55.894;-3.052;2024-03-23T05:14:55;99594.66;;;1.38;61.75
80397;BME280;69721;55.894;-3.052;2024-03-23T05:17:21;99589.26;;;1.49;61.84
80397;BME280;69721;55.894;-3.052;2024-03-23T05:19:47;99599.38;;;1.94;61.49
80397;BME280;69721;55.894;-3.052;2024-03-23T05:22:17;99596.19;;;1.60;62.10
80397;BME280;69721;55.894;-3.052;2024-03-23T05:24:37;99604.64;;;0.79;64.01
80397;BME280;69721;55.894;-3.052;2024-03-23T05:27:03;99586.33;;;1.72;62.53
80397;BME280;69721;55.894;-3.052;2024-03-23T05:29:29;99595.74;;;1.38;63.23
80397;BME280;69721;55.894;-3.052;2024-03-23T05:31:54;99587.23;;;1.76;62.84
80397;BME280;69721;55.894;-3.052;2024-03-23T05:34:20;99594.50;;;1.69;62.81
80397;BME280;69721;55.894;-3.052;2024-03-23T05:36:45;99593.18;;;1.40;63.28
80397;BME280;69721;55.894;-3.052;2024-03-23T05:39:11;99581.43;;;2.14;61.54
80397;BME280;69721;55.894;-3.052;2024-03-23T05:44:44;99569.71;;;2.13;61.20
80397;BME280;69721;55.894;-3.052;2024-03-23T05:47:10;99586.06;;;2.13;61.47
80397;BME280;69721;55.894;-3.052;2024-03-23T05:49:35;99595.35;;;2.15;61.26
80397;BME280;69721;55.894;-3.052;2024-03-23T05:52:01;99589.35;;;2.48;60.08
80397;BME280;69721;55.894;-3.052;2024-03-23T05:54:26;99585.38;;;2.42;60.24
80397;BME280;69721;55.894;-3.052;2024-03-23T05:56:55;99590.48;;;1.99;60.59
80397;BME280;69721;55.894;-3.052;2024-03-23T05:59:17;99595.57;;;1.70;61.80
80397;BME280;69721;55.894;-3.052;2024-03-23T06:01:43;99592.18;;;1.50;61.63
80397;BME280;69721;55.894;-3.052;2024-03-23T06:04:08;99591.95;;;1.44;63.28
80397;BME280;69721;55.894;-3.052;2024-03-23T06:06:34;99581.31;;;1.51;63.52
80397;BME280;69721;55.894;-3.052;2024-03-23T06:08:59;99592.22;;;1.44;62.78
80397;BME280;69721;55.894;-3.052;2024-03-23T06:11:25;99588.33;;;1.72;61.81
80397;BME280;69721;55.894;-3.052;2024-03-23T06:13:50;99591.61;;;1.22;62.67
80397;BME280;69721;55.894;-3.052;2024-03-23T06:16:16;99593.31;;;1.20;62.01
80397;BME280;69721;55.894;-3.052;2024-03-23T06:18:41;99571.47;;;2.40;59.79
80397;BME280;69721;55.894;-3.052;2024-03-23T06:21:13;99564.71;;;1.82;59.95
80397;BME280;69721;55.894;-3.052;2024-03-23T06:23:34;99575.85;;;1.64;61.19
80397;BME280;69721;55.894;-3.052;2024-03-23T06:25:59;99578.86;;;1.51;59.99
80397;BME280;69721;55.894;-3.052;2024-03-23T06:28:25;99598.03;;;2.14;60.13
80397;BME280;69721;55.894;-3.052;2024-03-23T06:30:50;99583.87;;;1.84;59.11
80397;BME280;69721;55.894;-3.052;2024-03-23T06:33:16;99595.04;;;2.19;59.18
80397;BME280;69721;55.894;-3.052;2024-03-23T06:35:41;99589.83;;;1.92;60.98
80397;BME280;69721;55.894;-3.052;2024-03-23T06:38:06;99577.08;;;1.78;60.65
80397;BME280;69721;55.894;-3.052;2024-03-23T06:40:32;99583.71;;;1.42;60.98
80397;BME280;69721;55.894;-3.052;2024-03-23T06:42:57;99581.77;;;1.61;60.62
80397;BME280;69721;55.894;-3.052;2024-03-23T06:45:23;99577.01;;;2.07;60.92
80397;BME280;69721;55.894;-3.052;2024-03-23T06:47:49;99577.88;;;2.03;60.55
80397;BME280;69721;55.894;-3.052;2024-03-23T06:52:39;99598.75;;;1.83;61.54
80397;BME280;69721;55.894;-3.052;2024-03-23T06:55:05;99593.46;;;1.01;63.66
80397;BME280;69721;55.894;-3.052;2024-03-23T06:57:31;99599.35;;;1.67;62.76
80397;BME280;69721;55.894;-3.052;2024-03-23T06:59:58;99582.89;;;1.75;62.72
80397;BME280;69721;55.894;-3.052;2024-03-23T07:02:23;99580.89;;;1.42;63.49
80397;BME280;69721;55.894;-3.052;2024-03-23T07:04:49;99578.69;;;1.80;61.80
80397;BME280;69721;55.894;-3.052;2024-03-23T07:07:14;99583.87;;;1.34;63.17
80397;BME280;69721;55.894;-3.052;2024-03-23T07:09:40;99591.14;;;1.96;61.60
80397;BME280;69721;55.894;-3.052;2024-03-23T07:12:06;99577.03;;;2.68;58.85
80397;BME280;69721;55.894;-3.052;2024-03-23T07:14:31;99560.63;;;2.73;57.57
80397;BME280;69721;55.894;-3.052;2024-03-23T07:16:56;99557.99;;;2.46;58.75
80397;BME280;69721;55.894;-3.052;2024-03-23T07:19:22;99550.86;;;2.12;59.64
80397;BME280;69721;55.894;-3.052;2024-03-23T07:21:47;99561.35;;;2.12;58.91
80397;BME280;69721;55.894;-3.052;2024-03-23T07:24:13;99579.21;;;2.39;59.27
80397;BME280;69721;55.894;-3.052;2024-03-23T07:26:38;99559.11;;;3.52;55.61
80397;BME280;69721;55.894;-3.052;2024-03-23T07:29:04;99577.96;;;2.78;57.69
80397;BME280;69721;55.894;-3.052;2024-03-23T07:31:30;99579.29;;;2.17;58.72
80397;BME280;69721;55.894;-3.052;2024-03-23T07:33:55;99574.31;;;2.19;59.35
80397;BME280;69721;55.894;-3.052;2024-03-23T07:36:20;99574.70;;;1.76;59.97
80397;BME280;69721;55.894;-3.052;2024-03-23T07:38:46;99567.49;;;1.81;59.81
80397;BME280;69721;55.894;-3.052;2024-03-23T07:41:15;99566.81;;;1.83;60.08
80397;BME280;69721;55.894;-3.052;2024-03-23T07:43:38;99574.39;;;1.93;60.13
80397;BME280;69721;55.894;-3.052;2024-03-23T07:46:03;99559.59;;;2.13;59.03
80397;BME280;69721;55.894;-3.052;2024-03-23T07:48:28;99560.61;;;2.62;57.49
80397;BME280;69721;55.894;-3.052;2024-03-23T07:51:01;99572.68;;;2.12;59.26
80397;BME280;69721;55.894;-3.052;2024-03-23T07:53:19;99577.87;;;1.97;59.60
80397;BME280;69721;55.894;-3.052;2024-03-23T07:55:52;99577.54;;;1.71;60.94
80397;BME280;69721;55.894;-3.052;2024-03-23T07:58:11;99608.74;;;2.08;60.52
80397;BME280;69721;55.894;-3.052;2024-03-23T08:03:02;99583.00;;;1.91;60.12
80397;BME280;69721;55.894;-3.052;2024-03-23T08:05:27;99575.78;;;1.82;61.67
80397;BME280;69721;55.894;-3.052;2024-03-23T08:07:53;99571.40;;;2.57;59.34
80397;BME280;69721;55.894;-3.052;2024-03-23T08:10:18;99573.66;;;2.45;59.49
80397;BME280;69721;55.894;-3.052;2024-03-23T08:12:46;99564.81;;;2.26;60.82
80397;BME280;69721;55.894;-3.052;2024-03-23T08:15:10;99574.26;;;2.63;61.21
80397;BME280;69721;55.894;-3.052;2024-03-23T08:17:35;99554.89;;;3.34;59.47
80397;BME280;69721;55.894;-3.052;2024-03-23T08:20:01;99556.94;;;3.16;58.51
80397;BME280;69721;55.894;-3.052;2024-03-23T08:22:26;99548.42;;;2.51;60.33
80397;BME280;69721;55.894;-3.052;2024-03-23T08:24:52;99561.94;;;2.48;59.86
80397;BME280;69721;55.894;-3.052;2024-03-23T08:27:18;99540.18;;;3.01;59.10
80397;BME280;69721;55.894;-3.052;2024-03-23T08:29:45;99534.37;;;2.96;58.21
80397;BME280;69721;55.894;-3.052;2024-03-23T08:32:09;99555.32;;;2.63;59.93
80397;BME280;69721;55.894;-3.052;2024-03-23T08:34:35;99535.03;;;3.09;59.27
80397;BME280;69721;55.894;-3.052;2024-03-23T08:37:01;99547.30;;;3.21;58.96
80397;BME280;69721;55.894;-3.052;2024-03-23T08:39:26;99543.94;;;2.25;60.73
80397;BME280;69721;55.894;-3.052;2024-03-23T08:41:52;99535.95;;;2.69;60.63
80397;BME280;69721;55.894;-3.052;2024-03-23T08:44:20;99541.53;;;2.96;59.98
80397;BME280;69721;55.894;-3.052;2024-03-23T08:46:44;99533.33;;;2.75;61.04
80397;BME280;69721;55.894;-3.052;2024-03-23T08:49:10;99531.05;;;3.24;59.64
80397;BME280;69721;55.894;-3.052;2024-03-23T08:51:35;99528.17;;;3.80;59.34
80397;BME280;69721;55.894;-3.052;2024-03-23T08:54:01;99535.62;;;4.17;57.89
80397;BME280;69721;55.894;-3.052;2024-03-23T08:56:27;99534.86;;;3.69;58.11
80397;BME280;69721;55.894;-3.052;2024-03-23T08:58:53;99525.21;;;4.05;57.25
80397;BME280;69721;55.894;-3.052;2024-03-23T09:01:24;99520.44;;;3.49;58.04
80397;BME280;69721;55.894;-3.052;2024-03-23T09:03:44;99527.40;;;3.93;58.06
80397;BME280;69721;55.894;-3.052;2024-03-23T09:06:10;99527.68;;;3.48;57.80
80397;BME280;69721;55.894;-3.052;2024-03-23T09:08:37;99531.19;;;4.03;57.07
80397;BME280;69721;55.894;-3.052;2024-03-23T09:13:27;99516.14;;;3.94;56.80
80397;BME280;69721;55.894;-3.052;2024-03-23T09:15:53;99521.36;;;4.51;55.62
80397;BME280;69721;55.894;-3.052;2024-03-23T09:18:18;99506.81;;;4.40;54.90
80397;BME280;69721;55.894;-3.052;2024-03-23T09:20:44;99502.51;;;4.62;55.48
80397;BME280;69721;55.894;-3.052;2024-03-23T09:23:09;99511.26;;;4.33;56.50
80397;BME280;69721;55.894;-3.052;2024-03-23T09:25:37;99542.35;;;3.95;58.22
80397;BME280;69721;55.894;-3.052;2024-03-23T09:28:02;99517.32;;;3.74;59.90
80397;BME280;69721;55.894;-3.052;2024-03-23T09:30:28;99503.01;;;3.30;60.08
80397;BME280;69721;55.894;-3.052;2024-03-23T09:32:53;99500.84;;;3.98;60.08
80397;BME280;69721;55.894;-3.052;2024-03-23T09:35:19;99530.76;;;3.47;60.37
80397;BME280;69721;55.894;-3.052;2024-03-23T09:37:45;99526.21;;;3.78;59.64
80397;BME280;69721;55.894;-3.052;2024-03-23T09:40:10;99514.24;;;3.86;59.76
80397;BME280;69721;55.894;-3.052;2024-03-23T09:42:35;99527.09;;;4.19;60.10
80397;BME280;69721;55.894;-3.052;2024-03-23T09:45:01;99536.59;;;3.82;60.20
80397;BME280;69721;55.894;-3.052;2024-03-23T09:47:29;99537.73;;;4.07;60.08
80397;BME280;69721;55.894;-3.052;2024-03-23T09:49:54;99546.33;;;4.31;59.14
80397;BME280;69721;55.894;-3.052;2024-03-23T09:52:19;99535.27;;;4.45;58.77
80397;BME280;69721;55.894;-3.052;2024-03-23T09:54:45;99538.59;;;4.75;58.78
80397;BME280;69721;55.894;-3.052;2024-03-23T09:57:10;99542.60;;;4.22;57.84
80397;BME280;69721;55.894;-3.052;2024-03-23T09:59:35;99524.21;;;4.78;58.56
80397;BME280;69721;55.894;-3.052;2024-03-23T10:02:01;99541.57;;;4.97;57.44
80397;BME280;69721;55.894;-3.052;2024-03-23T10:04:36;99536.15;;;4.68;57.71
80397;BME280;69721;55.894;-3.052;2024-03-23T10:06:52;99544.47;;;4.15;60.17
80397;BME280;69721;55.894;-3.052;2024-03-23T10:09:17;99536.50;;;4.47;60.13
80397;BME280;69721;55.894;-3.052;2024-03-23T10:11:43;99540.40;;;4.25;60.50
80397;BME280;69721;55.894;-3.052;2024-03-23T10:14:09;99552.12;;;4.31;59.81
80397;BME280;69721;55.894;-3.052;2024-03-23T10:16:34;99535.36;;;4.36;60.28
80397;BME280;69721;55.894;-3.052;2024-03-23T10:19:00;99558.62;;;4.34;61.95
80397;BME280;69721;55.894;-3.052;2024-03-23T10:23:53;99545.57;;;4.72;60.45
80397;BME280;69721;55.894;-3.052;2024-03-23T10:26:19;99542.17;;;4.40;61.06
80397;BME280;69721;55.894;-3.052;2024-03-23T10:28:52;99551.16;;;4.61;60.44
80397;BME280;69721;55.894;-3.052;2024-03-23T10:31:12;99555.42;;;4.82;58.96
80397;BME280;69721;55.894;-3.052;2024-03-23T10:33:34;99561.13;;;4.36;61.10
80397;BME280;69721;55.894;-3.052;2024-03-23T10:36:00;99542.22;;;4.80;61.56
80397;BME280;69721;55.894;-3.052;2024-03-23T10:38:26;99551.76;;;5.19;58.83
80397;BME280;69721;55.894;-3.052;2024-03-23T10:40:51;99535.10;;;5.13;59.44
80397;BME280;69721;55.894;-3.052;2024-03-23T10:43:17;99537.29;;;5.83;57.10
80397;BME280;69721;55.894;-3.052;2024-03-23T10:45:42;99554.06;;;5.72;56.40
80397;BME280;69721;55.894;-3.052;2024-03-23T10:48:08;99539.70;;;6.04;56.11
80397;BME280;69721;55.894;-3.052;2024-03-23T10:50:33;99533.38;;;5.97;56.09
80397;BME280;69721;55.894;-3.052;2024-03-23T10:52:59;99511.18;;;5.16;57.87
80397;BME280;69721;55.894;-3.052;2024-03-23T10:55:25;99512.66;;;5.39;57.87
80397;BME280;69721;55.894;-3.052;2024-03-23T10:57:52;99504.67;;;5.48;58.06
80397;BME280;69721;55.894;-3.052;2024-03-23T11:00:16;99525.05;;;5.62;57.00
80397;BME280;69721;55.894;-3.052;2024-03-23T11:02:41;99506.23;;;6.48;55.89
80397;BME280;69721;55.894;-3.052;2024-03-23T11:07:33;99509.63;;;6.68;54.98
80397;BME280;69721;55.894;-3.052;2024-03-23T11:09:58;99497.40;;;6.99;54.08
80397;BME280;69721;55.894;-3.052;2024-03-23T11:12:30;99514.92;;;5.89;56.64
80397;BME280;69721;55.894;-3.052;2024-03-23T11:14:49;99511.02;;;5.92;56.60
80397;BME280;69721;55.894;-3.052;2024-03-23T11:17:18;99489.40;;;6.63;55.93
80397;BME280;69721;55.894;-3.052;2024-03-23T11:19:39;99487.77;;;6.55;54.55
80397;BME280;69721;55.894;-3.052;2024-03-23T11:22:05;99479.12;;;7.88;53.13
80397;BME280;69721;55.894;-3.052;2024-03-23T11:24:31;99478.94;;;6.85;54.06
80397;BME280;69721;55.894;-3.052;2024-03-23T11:26:56;99475.62;;;7.70;52.92
80397;BME280;69721;55.894;-3.052;2024-03-23T11:29:21;99482.81;;;6.74;53.76
80397;BME280;69721;55.894;-3.052;2024-03-23T11:34:13;99482.32;;;6.29;55.25
80397;BME280;69721;55.894;-3.052;2024-03-23T11:36:37;99485.57;;;6.44;53.73
80397;BME280;69721;55.894;-3.052;2024-03-23T11:39:11;99484.85;;;5.95;55.62
80397;BME280;69721;55.894;-3.052;2024-03-23T11:41:29;99491.51;;;6.30;55.13
80397;BME280;69721;55.894;-3.052;2024-03-23T11:43:54;99486.99;;;6.84;55.30
80397;BME280;69721;55.894;-3.052;2024-03-23T11:46:23;99489.06;;;7.04;53.86
80397;BME280;69721;55.894;-3.052;2024-03-23T11:48:49;99475.75;;;7.52;51.90
80397;BME280;69721;55.894;-3.052;2024-03-23T11:51:10;99477.97;;;7.10;52.27
80397;BME280;69721;55.894;-3.052;2024-03-23T11:53:36;99477.96;;;7.01;52.07
80397;BME280;69721;55.894;-3.052;2024-03-23T11:56:02;99478.33;;;6.77;52.75
80397;BME280;69721;55.894;-3.052;2024-03-23T11:58:27;99482.20;;;6.54;52.77
80397;BME280;69721;55.894;-3.052;2024-03-23T12:00:55;99475.85;;;7.11;52.98
80397;BME280;69721;55.894;-3.052;2024-03-23T12:03:18;99482.09;;;7.94;50.65
80397;BME280;69721;55.894;-3.052;2024-03-23T12:05:48;99477.73;;;6.46;52.44
80397;BME280;69721;55.894;-3.052;2024-03-23T12:10:35;99499.57;;;6.07;54.32
80397;BME280;69721;55.894;-3.052;2024-03-23T12:13:01;99498.70;;;5.96;53.70
80397;BME280;69721;55.894;-3.052;2024-03-23T12:15:27;99519.44;;;6.26;53.71
80397;BME280;69721;55.894;-3.052;2024-03-23T12:17:52;99514.14;;;6.13;54.00
80397;BME280;69721;55.894;-3.052;2024-03-23T12:20:17;99492.66;;;6.26;54.85
80397;BME280;69721;55.894;-3.052;2024-03-23T12:22:43;99532.91;;;5.69;55.44
80397;BME280;69721;55.894;-3.052;2024-03-23T12:25:08;99475.20;;;6.71;53.91
80397;BME280;69721;55.894;-3.052;2024-03-23T12:27:34;99492.35;;;6.68;53.92
80397;BME280;69721;55.894;-3.052;2024-03-23T12:29:59;99500.76;;;6.46;52.24
80397;BME280;69721;55.894;-3.052;2024-03-23T12:32:25;99491.29;;;6.92;52.28
80397;BME280;69721;55.894;-3.052;2024-03-23T12:34:50;99482.12;;;7.68;51.13
80397;BME280;69721;55.894;-3.052;2024-03-23T12:37:16;99476.58;;;7.13;52.38
80397;BME280;69721;55.894;-3.052;2024-03-23T12:39:41;99496.99;;;7.66;51.65
80397;BME280;69721;55.894;-3.052;2024-03-23T12:44:32;99484.18;;;7.46;51.02
80397;BME280;69721;55.894;-3.052;2024-03-23T12:46:58;99486.77;;;6.77;51.78
80397;BME280;69721;55.894;-3.052;2024-03-23T12:49:23;99477.61;;;8.28;49.75
80397;BME280;69721;55.894;-3.052;2024-03-23T12:51:54;99468.08;;;8.39;48.66
80397;BME280;69721;55.894;-3.052;2024-03-23T12:54:14;99465.26;;;8.04;48.68
80397;BME280;69721;55.894;-3.052;2024-03-23T12:56:39;99487.07;;;7.62;49.30
80397;BME280;69721;55.894;-3.052;2024-03-23T12:59:05;99487.57;;;6.80;51.42
80397;BME280;69721;55.894;-3.052;2024-03-23T13:01:30;99486.81;;;7.12;51.48
80397;BME280;69721;55.894;-3.052;2024-03-23T13:03:56;99481.94;;;6.86;52.58
80397;BME280;69721;55.894;-3.052;2024-03-23T13:06:21;99499.41;;;7.16;52.24
80397;BME280;69721;55.894;-3.052;2024-03-23T13:08:47;99485.13;;;6.82;52.96
80397;BME280;69721;55.894;-3.052;2024-03-23T13:11:13;99498.01;;;6.21;53.09
80397;BME280;69721;55.894;-3.052;2024-03-23T13:13:38;99510.42;;;6.71;54.39
80397;BME280;69721;55.894;-3.052;2024-03-23T13:16:04;99496.06;;;6.90;53.04
80397;BME280;69721;55.894;-3.052;2024-03-23T13:18:29;99500.42;;;6.73;52.14
80397;BME280;69721;55.894;-3.052;2024-03-23T13:20:54;99506.56;;;8.46;49.59
80397;BME280;69721;55.894;-3.052;2024-03-23T13:23:20;99499.61;;;7.32;51.66
80397;BME280;69721;55.894;-3.052;2024-03-23T13:25:50;99493.34;;;7.85;51.41
80397;BME280;69721;55.894;-3.052;2024-03-23T13:28:11;99509.59;;;7.31;52.29
80397;BME280;69721;55.894;-3.052;2024-03-23T13:30:36;99501.91;;;7.57;52.46
80397;BME280;69721;55.894;-3.052;2024-03-23T13:33:01;99506.62;;;7.45;52.92
80397;BME280;69721;55.894;-3.052;2024-03-23T13:35:27;99495.43;;;6.77;52.16
80397;BME280;69721;55.894;-3.052;2024-03-23T13:37:52;99497.38;;;7.42;51.89
80397;BME280;69721;55.894;-3.052;2024-03-23T13:40:18;99492.94;;;8.03;50.01
80397;BME280;69721;55.894;-3.052;2024-03-23T13:42:43;99496.17;;;8.35;50.02
80397;BME280;69721;55.894;-3.052;2024-03-23T13:45:09;99504.23;;;8.19;49.68
80397;BME280;69721;55.894;-3.052;2024-03-23T13:47:34;99499.47;;;6.92;51.23
80397;BME280;69721;55.894;-3.052;2024-03-23T13:50:01;99506.45;;;6.81;52.64
80397;BME280;69721;55.894;-3.052;2024-03-23T13:54:51;99499.31;;;8.82;48.12
80397;BME280;69721;55.894;-3.052;2024-03-23T13:57:17;99513.95;;;7.20;51.38
80397;BME280;69721;55.894;-3.052;2024-03-23T13:59:42;99494.87;;;7.32;51.18
80397;BME280;69721;55.894;-3.052;2024-03-23T14:03:59;99503.93;;;8.51;49.66
80397;BME280;69721;55.894;-3.052;2024-03-23T14:06:25;99510.56;;;7.58;50.51
80397;BME280;69721;55.894;-3.052;2024-03-23T14:08:50;99513.64;;;7.92;48.63
80397;BME280;69721;55.894;-3.052;2024-03-23T14:11:18;99524.81;;;8.14;48.56
80397;BME280;69721;55.894;-3.052;2024-03-23T14:13:42;99509.36;;;8.18;47.87
80397;BME280;69721;55.894;-3.052;2024-03-23T14:16:07;99506.79;;;8.75;49.71
80397;BME280;69721;55.894;-3.052;2024-03-23T14:18:36;99516.35;;;9.35;47.72